Time;durP1;ratioP1;P1;durP2;ratioP2;P2;SDS_P1;SDS_P2;PMS_P1;PMS_P2;Temp;Humidity;BMP_temperature;BMP_pressure;BME280_temperature;BME280_humidity;BME280_pressure;Samples;Min_cycle;Max_cycle;Signal;HPM_P1;HPM_P2
2024/02/26 00:00:20;;;;;;;7.30;6.05;;;;;;;;;;5014262;28;20053;-63
2024/02/26 00:02:47;;;;;;;6.07;5.47;;;;;;;;;;5014637;28;20415;-62
2024/02/26 00:05:13;;;;;;;7.28;5.70;;;;;;;;;;5014245;28;20029;-63
2024/02/26 00:07:40;;;;;;;6.85;5.13;;;;;;;;;;5014523;28;20030;-63
2024/02/26 00:10:06;;;;;;;5.57;4.85;;;;;;;;;;5014006;28;20022;-63
2024/02/26 00:12:32;;;;;;;6.60;4.68;;;;;;;;;;5014189;28;20060;-63
2024/02/26 00:14:58;;;;;;;5.13;4.38;;;;;;;;;;5014010;28;20038;-63
2024/02/26 00:17:24;;;;;;;4.95;4.30;;;;;;;;;;5012448;28;20357;-63
2024/02/26 00:19:50;;;;;;;4.82;4.32;;;;;;;;;;5012909;28;20049;-63
2024/02/26 00:22:16;;;;;;;5.38;4.03;;;;;;;;;;5013350;28;20014;-63
2024/02/26 00:24:42;;;;;;;6.57;3.80;;;;;;;;;;5013966;28;20025;-63
2024/02/26 00:27:08;;;;;;;5.55;4.30;;;;;;;;;;5010262;28;20491;-63
2024/02/26 00:29:34;;;;;;;4.82;4.22;;;;;;;;;;5012223;28;20072;-63
2024/02/26 00:32:00;;;;;;;6.43;4.32;;;;;;;;;;5013922;28;20472;-63
2024/02/26 00:34:26;;;;;;;4.70;3.90;;;;;;;;;;5013442;28;20041;-63
2024/02/26 00:36:52;;;;;;;5.95;3.83;;;;;;;;;;5013695;28;20435;-63
2024/02/26 00:39:18;;;;;;;4.18;3.65;;;;;;;;;;5012244;28;20030;-63
2024/02/26 00:41:44;;;;;;;3.38;2.95;;;;;;;;;;5012199;28;20038;-63
2024/02/26 00:44:11;;;;;;;4.97;2.83;;;;;;;;;;5013315;28;20171;-63
2024/02/26 00:46:37;;;;;;;7.40;3.60;;;;;;;;;;5012037;28;20034;-63
2024/02/26 00:49:03;;;;;;;2.80;2.50;;;;;;;;;;4993583;28;20185;-63
2024/02/26 00:51:29;;;;;;;3.90;2.38;;;;;;;;;;5013102;28;20018;-63
2024/02/26 00:53:55;;;;;;;2.15;1.95;;;;;;;;;;5012832;28;20034;-63
2024/02/26 00:56:22;;;;;;;2.45;2.08;;;;;;;;;;5013069;28;20028;-63
2024/02/26 00:58:48;;;;;;;2.70;1.80;;;;;;;;;;5013125;28;20546;-63
2024/02/26 01:01:14;;;;;;;6.22;2.53;;;;;;;;;;5013157;28;20042;-63
2024/02/26 01:03:40;;;;;;;1.98;1.58;;;;;;;;;;5011711;28;20022;-64
2024/02/26 01:06:06;;;;;;;3.63;2.00;;;;;;;;;;5013224;28;20018;-63
2024/02/26 01:08:32;;;;;;;6.70;2.10;;;;;;;;;;5012157;28;20014;-63
2024/02/26 01:10:58;;;;;;;1.85;1.33;;;;;;;;;;5012883;28;20021;-63
2024/02/26 01:13:24;;;;;;;1.73;1.58;;;;;;;;;;5012828;28;20373;-63
2024/02/26 01:15:50;;;;;;;3.72;1.50;;;;;;;;;;5011435;28;20045;-63
2024/02/26 01:18:16;;;;;;;1.60;1.30;;;;;;;;;;5011605;28;20046;-63
2024/02/26 01:20:41;;;;;;;2.17;1.50;;;;;;;;;;5012812;28;20396;-63
2024/02/26 01:23:07;;;;;;;2.60;1.30;;;;;;;;;;5012733;28;20100;-63
2024/02/26 01:25:33;;;;;;;2.20;1.20;;;;;;;;;;5012498;28;20034;-63
2024/02/26 01:27:59;;;;;;;2.22;1.40;;;;;;;;;;5012955;28;20033;-63
2024/02/26 01:30:25;;;;;;;3.60;1.98;;;;;;;;;;5013050;28;20464;-63
2024/02/26 01:32:52;;;;;;;1.65;1.55;;;;;;;;;;5012761;28;20104;-63
2024/02/26 01:35:19;;;;;;;3.28;1.85;;;;;;;;;;5012944;28;20042;-63
2024/02/26 01:37:45;;;;;;;2.47;1.83;;;;;;;;;;5012636;28;20072;-64
2024/02/26 01:40:11;;;;;;;2.28;2.00;;;;;;;;;;5013369;28;20030;-63
2024/02/26 01:42:41;;;;;;;2.25;1.90;;;;;;;;;;5019136;28;20029;-63
2024/02/26 01:45:10;;;;;;;3.30;2.35;;;;;;;;;;5019280;28;20080;-63
2024/02/26 01:47:36;;;;;;;5.50;3.08;;;;;;;;;;5019261;28;20064;-63
2024/02/26 01:50:09;;;;;;;4.70;2.95;;;;;;;;;;5019353;28;20388;-63
2024/02/26 01:52:40;;;;;;;4.68;3.83;;;;;;;;;;5016113;28;20080;-63
2024/02/26 01:55:08;;;;;;;4.82;3.70;;;;;;;;;;5018952;28;20037;-63
2024/02/26 01:57:34;;;;;;;5.78;4.50;;;;;;;;;;5017611;28;20492;-63
2024/02/26 02:00:00;;;;;;;5.80;4.70;;;;;;;;;;5018856;28;20057;-63
2024/02/26 02:02:26;;;;;;;7.03;4.65;;;;;;;;;;5019122;28;20114;-63
2024/02/26 02:04:52;;;;;;;5.57;4.65;;;;;;;;;;5016917;28;20030;-63
2024/02/26 02:07:19;;;;;;;8.88;5.18;;;;;;;;;;5017030;28;20037;-62
2024/02/26 02:09:45;;;;;;;6.97;4.75;;;;;;;;;;5018649;28;20053;-62
2024/02/26 02:12:11;;;;;;;7.40;5.43;;;;;;;;;;5018296;28;20025;-62
2024/02/26 02:14:37;;;;;;;9.20;5.57;;;;;;;;;;5018229;28;20353;-62
2024/02/26 02:17:03;;;;;;;5.90;5.30;;;;;;;;;;5014740;28;20040;-62
2024/02/26 02:19:29;;;;;;;6.80;5.43;;;;;;;;;;5006623;28;20105;-62
2024/02/26 02:21:55;;;;;;;6.45;4.78;;;;;;;;;;5016876;28;20024;-62
2024/02/26 02:24:21;;;;;;;7.15;5.35;;;;;;;;;;5016138;28;20044;-63
2024/02/26 02:26:47;;;;;;;5.60;4.68;;;;;;;;;;5011598;28;20065;-62
2024/02/26 02:29:14;;;;;;;5.90;4.53;;;;;;;;;;5016371;28;20026;-62
2024/02/26 02:31:40;;;;;;;8.38;4.68;;;;;;;;;;5016658;28;20822;-63
2024/02/26 02:34:06;;;;;;;6.15;4.88;;;;;;;;;;5012473;28;20022;-63
2024/02/26 02:36:32;;;;;;;5.13;4.10;;;;;;;;;;5010792;28;20038;-63
2024/02/26 02:38:58;;;;;;;5.75;4.10;;;;;;;;;;5018428;28;20017;-63
2024/02/26 02:41:26;;;;;;;4.88;4.03;;;;;;;;;;5018625;28;20028;-63
2024/02/26 02:43:52;;;;;;;5.60;4.15;;;;;;;;;;5018994;28;20025;-62
2024/02/26 02:46:18;;;;;;;5.05;3.58;;;;;;;;;;5011536;28;20520;-63
2024/02/26 02:48:44;;;;;;;4.63;4.13;;;;;;;;;;5016156;28;20117;-63
2024/02/26 02:51:10;;;;;;;4.50;3.63;;;;;;;;;;5018896;28;20108;-63
2024/02/26 02:53:36;;;;;;;4.68;3.72;;;;;;;;;;5014163;28;20105;-63
2024/02/26 02:56:02;;;;;;;4.10;3.58;;;;;;;;;;5015666;28;20026;-63
2024/02/26 02:58:28;;;;;;;5.15;3.58;;;;;;;;;;5015518;28;20399;-63
2024/02/26 03:00:55;;;;;;;5.15;3.65;;;;;;;;;;5015170;28;20046;-63
2024/02/26 03:03:24;;;;;;;5.70;3.60;;;;;;;;;;5015324;28;20026;-63
2024/02/26 03:05:50;;;;;;;5.40;3.42;;;;;;;;;;5014935;28;20104;-62
2024/02/26 03:08:16;;;;;;;4.55;3.15;;;;;;;;;;5015281;28;20496;-63
2024/02/26 03:10:43;;;;;;;3.78;3.03;;;;;;;;;;5014304;28;20185;-63
2024/02/26 03:13:09;;;;;;;3.22;2.92;;;;;;;;;;5014167;28;20045;-62
2024/02/26 03:15:35;;;;;;;3.35;3.05;;;;;;;;;;5014928;28;20061;-62
2024/02/26 03:18:01;;;;;;;5.20;3.47;;;;;;;;;;5013706;28;20058;-63
2024/02/26 03:20:27;;;;;;;3.83;3.45;;;;;;;;;;5015418;28;20022;-63
2024/02/26 03:22:53;;;;;;;3.83;2.97;;;;;;;;;;5015001;28;20030;-63
2024/02/26 03:25:19;;;;;;;5.75;2.92;;;;;;;;;;5015093;28;20387;-63
2024/02/26 03:27:45;;;;;;;4.63;2.78;;;;;;;;;;5014741;28;20034;-63
2024/02/26 03:30:11;;;;;;;3.33;2.88;;;;;;;;;;5014679;28;20049;-63
2024/02/26 03:32:37;;;;;;;3.13;2.72;;;;;;;;;;5014774;28;20026;-63
2024/02/26 03:35:03;;;;;;;2.83;2.55;;;;;;;;;;5014661;28;20049;-63
2024/02/26 03:37:29;;;;;;;3.10;2.78;;;;;;;;;;5013122;28;20313;-63
2024/02/26 03:39:57;;;;;;;6.05;2.97;;;;;;;;;;5014966;28;20051;-63
2024/02/26 03:42:23;;;;;;;5.07;3.13;;;;;;;;;;5010462;28;20018;-63
2024/02/26 03:44:49;;;;;;;3.70;2.83;;;;;;;;;;5014650;28;20041;-63
2024/02/26 03:47:15;;;;;;;4.15;3.10;;;;;;;;;;5014607;28;20060;-63
2024/02/26 03:49:41;;;;;;;4.18;3.00;;;;;;;;;;5014914;28;20478;-63
2024/02/26 03:52:06;;;;;;;3.83;3.13;;;;;;;;;;5012031;28;20037;-63
2024/02/26 03:54:32;;;;;;;4.15;2.88;;;;;;;;;;5014036;28;20034;-63
2024/02/26 03:56:58;;;;;;;2.75;2.45;;;;;;;;;;5014043;28;20120;-63
2024/02/26 03:59:24;;;;;;;4.07;2.88;;;;;;;;;;5010437;28;20416;-63
2024/02/26 04:01:51;;;;;;;3.65;2.65;;;;;;;;;;5007534;28;20037;-63
2024/02/26 04:04:17;;;;;;;3.63;3.15;;;;;;;;;;5013830;28;20373;-63
2024/02/26 04:06:45;;;;;;;4.85;3.05;;;;;;;;;;5014451;28;20056;-62
2024/02/26 04:09:11;;;;;;;3.55;3.15;;;;;;;;;;5013802;28;20065;-62
2024/02/26 04:11:37;;;;;;;3.35;3.05;;;;;;;;;;5014107;28;20069;-63
2024/02/26 04:14:03;;;;;;;3.45;3.15;;;;;;;;;;5013360;28;20453;-63
2024/02/26 04:16:30;;;;;;;4.15;3.13;;;;;;;;;;5014391;28;20030;-63
2024/02/26 04:18:55;;;;;;;5.53;3.08;;;;;;;;;;5013962;28;20071;-62
2024/02/26 04:21:21;;;;;;;3.88;2.53;;;;;;;;;;5013948;28;20021;-62
2024/02/26 04:23:49;;;;;;;3.63;2.50;;;;;;;;;;5013659;28;20022;-62
2024/02/26 04:26:15;;;;;;;2.60;2.40;;;;;;;;;;5013855;28;20049;-62
2024/02/26 04:28:41;;;;;;;4.28;2.63;;;;;;;;;;5013664;28;20092;-62
2024/02/26 04:31:07;;;;;;;2.97;2.70;;;;;;;;;;5013772;28;20504;-62
2024/02/26 04:33:35;;;;;;;3.38;2.65;;;;;;;;;;5013510;28;20507;-62
2024/02/26 04:36:01;;;;;;;2.92;2.65;;;;;;;;;;5013520;28;20037;-63
2024/02/26 04:38:26;;;;;;;3.05;2.58;;;;;;;;;;5013522;28;20380;-63
2024/02/26 04:40:53;;;;;;;4.22;2.42;;;;;;;;;;5009970;28;20026;-63
2024/02/26 04:43:19;;;;;;;4.60;2.60;;;;;;;;;;5013711;28;20022;-64
2024/02/26 04:45:45;;;;;;;2.63;2.42;;;;;;;;;;5013795;28;20029;-63
2024/02/26 04:48:11;;;;;;;3.92;2.22;;;;;;;;;;5013601;28;20029;-63
2024/02/26 04:50:37;;;;;;;4.82;2.38;;;;;;;;;;5013367;28;20025;-64
2024/02/26 04:53:03;;;;;;;3.92;2.50;;;;;;;;;;5013430;28;20026;-63
2024/02/26 04:55:29;;;;;;;2.63;2.25;;;;;;;;;;5013462;28;20165;-63
2024/02/26 04:57:55;;;;;;;2.85;2.47;;;;;;;;;;5011640;28;20444;-63
2024/02/26 05:00:21;;;;;;;3.08;2.78;;;;;;;;;;5013242;28;20042;-64
2024/02/26 05:02:47;;;;;;;4.72;2.55;;;;;;;;;;5013003;28;20476;-64
2024/02/26 05:05:13;;;;;;;5.03;2.47;;;;;;;;;;5013114;28;20050;-64
2024/02/26 05:07:41;;;;;;;4.28;2.47;;;;;;;;;;5013605;28;20025;-63
2024/02/26 05:10:07;;;;;;;4.93;3.03;;;;;;;;;;5012608;28;20408;-64
2024/02/26 05:12:35;;;;;;;3.30;2.42;;;;;;;;;;5013274;28;20032;-64
2024/02/26 05:15:01;;;;;;;4.18;3.10;;;;;;;;;;5011915;28;20483;-63
2024/02/26 05:17:27;;;;;;;3.95;2.47;;;;;;;;;;5013193;28;20558;-63
2024/02/26 05:19:53;;;;;;;2.42;2.22;;;;;;;;;;5012870;28;20105;-63
2024/02/26 05:22:18;;;;;;;3.80;2.78;;;;;;;;;;5012899;28;20026;-63
2024/02/26 05:24:44;;;;;;;4.18;2.65;;;;;;;;;;5012976;28;20383;-63
2024/02/26 05:27:12;;;;;;;2.17;2.03;;;;;;;;;;5012688;28;20022;-63
2024/02/26 05:29:38;;;;;;;4.95;2.50;;;;;;;;;;5012744;28;20030;-63
2024/02/26 05:32:04;;;;;;;4.70;3.20;;;;;;;;;;5012766;28;20030;-63
2024/02/26 05:34:30;;;;;;;6.40;3.00;;;;;;;;;;5011173;28;20095;-64
2024/02/26 05:36:56;;;;;;;2.78;2.50;;;;;;;;;;5013113;28;20423;-63
2024/02/26 05:39:22;;;;;;;3.40;3.10;;;;;;;;;;5013195;28;20022;-64
2024/02/26 05:41:49;;;;;;;4.13;3.05;;;;;;;;;;5012971;28;20056;-64
2024/02/26 05:44:16;;;;;;;4.65;2.70;;;;;;;;;;5006241;28;20022;-63
2024/02/26 05:46:42;;;;;;;4.70;3.03;;;;;;;;;;5010891;28;20029;-64
2024/02/26 05:49:08;;;;;;;5.32;3.00;;;;;;;;;;5011280;28;20495;-63
2024/02/26 05:51:34;;;;;;;4.28;2.95;;;;;;;;;;5007808;28;20033;-63
2024/02/26 05:54:00;;;;;;;4.03;3.00;;;;;;;;;;5012543;28;20401;-63
2024/02/26 05:56:26;;;;;;;3.95;3.08;;;;;;;;;;5012504;28;20072;-63
2024/02/26 05:58:54;;;;;;;3.53;2.63;;;;;;;;;;5012669;28;20112;-63
2024/02/26 06:01:20;;;;;;;5.43;3.35;;;;;;;;;;5012256;28;20049;-63
2024/02/26 06:03:45;;;;;;;2.85;2.65;;;;;;;;;;5012156;28;20142;-63
2024/02/26 06:06:13;;;;;;;3.65;2.72;;;;;;;;;;5012301;28;20033;-63
2024/02/26 06:08:38;;;;;;;6.82;3.72;;;;;;;;;;5012490;28;20040;-63
2024/02/26 06:11:08;;;;;;;3.90;3.22;;;;;;;;;;5011194;28;20424;-64
2024/02/26 06:13:34;;;;;;;3.83;2.92;;;;;;;;;;5012120;28;20476;-63
2024/02/26 06:16:00;;;;;;;3.22;2.83;;;;;;;;;;5012206;28;20045;-63
2024/02/26 06:18:26;;;;;;;3.10;2.80;;;;;;;;;;5012528;28;20022;-63
2024/02/26 06:20:52;;;;;;;4.95;3.50;;;;;;;;;;5012545;28;20101;-63
2024/02/26 06:23:18;;;;;;;3.35;2.95;;;;;;;;;;5012353;28;20157;-63
2024/02/26 06:25:44;;;;;;;5.03;3.00;;;;;;;;;;5010884;28;20053;-63
2024/02/26 06:28:10;;;;;;;3.67;3.38;;;;;;;;;;5015400;28;20022;-64
2024/02/26 06:30:36;;;;;;;5.03;3.20;;;;;;;;;;5016027;28;20104;-64
2024/02/26 06:33:02;;;;;;;4.30;3.13;;;;;;;;;;5015761;28;20428;-64
2024/02/26 06:35:29;;;;;;;4.53;3.35;;;;;;;;;;5015927;28;20480;-64
2024/02/26 06:38:00;;;;;;;3.65;2.90;;;;;;;;;;5016082;28;20499;-64
2024/02/26 06:40:26;;;;;;;4.63;2.92;;;;;;;;;;5015421;28;20034;-64
2024/02/26 06:42:52;;;;;;;5.63;2.83;;;;;;;;;;5014290;28;20117;-64
2024/02/26 06:45:19;;;;;;;5.22;3.75;;;;;;;;;;5015768;28;20080;-64
2024/02/26 06:47:45;;;;;;;5.28;3.38;;;;;;;;;;5015807;28;20029;-64
2024/02/26 06:50:13;;;;;;;3.50;3.20;;;;;;;;;;5016061;28;20106;-64
2024/02/26 06:52:39;;;;;;;5.35;3.05;;;;;;;;;;5013002;28;20427;-64
2024/02/26 06:55:08;;;;;;;4.28;2.88;;;;;;;;;;5008211;28;20504;-64
2024/02/26 06:57:34;;;;;;;3.33;2.80;;;;;;;;;;5010725;28;20473;-64
2024/02/26 07:00:00;;;;;;;2.90;2.70;;;;;;;;;;5010652;28;20096;-64
2024/02/26 07:02:26;;;;;;;2.72;2.40;;;;;;;;;;5012043;28;20030;-64
2024/02/26 07:04:52;;;;;;;4.70;2.83;;;;;;;;;;5013485;28;20492;-64
2024/02/26 07:07:18;;;;;;;3.83;2.95;;;;;;;;;;5015739;28;20029;-63
2024/02/26 07:09:44;;;;;;;4.43;3.25;;;;;;;;;;5013927;28;20033;-63
2024/02/26 07:12:10;;;;;;;4.45;2.28;;;;;;;;;;5014974;28;20095;-63
2024/02/26 07:14:37;;;;;;;4.25;2.55;;;;;;;;;;5015214;28;20076;-63
2024/02/26 07:17:03;;;;;;;4.63;3.25;;;;;;;;;;5015103;28;20041;-63
2024/02/26 07:19:29;;;;;;;3.28;2.92;;;;;;;;;;5014714;28;20498;-63
2024/02/26 07:21:55;;;;;;;4.15;3.28;;;;;;;;;;5009420;28;20026;-63
2024/02/26 07:24:21;;;;;;;3.85;3.10;;;;;;;;;;5010086;28;20032;-63
2024/02/26 07:26:47;;;;;;;4.68;3.53;;;;;;;;;;5014590;28;20029;-63
2024/02/26 07:29:13;;;;;;;3.65;3.03;;;;;;;;;;5012949;28;20026;-63
2024/02/26 07:31:39;;;;;;;6.10;3.47;;;;;;;;;;5014438;28;20037;-63
2024/02/26 07:34:05;;;;;;;5.93;3.90;;;;;;;;;;5014757;28;20148;-63
2024/02/26 07:36:31;;;;;;;6.15;3.33;;;;;;;;;;5015006;28;20030;-63
2024/02/26 07:38:57;;;;;;;7.43;3.45;;;;;;;;;;5013587;28;20018;-63
2024/02/26 07:41:23;;;;;;;6.80;3.47;;;;;;;;;;5014225;28;20026;-63
2024/02/26 07:43:49;;;;;;;4.95;2.90;;;;;;;;;;5013685;28;20026;-63
2024/02/26 07:46:15;;;;;;;7.20;3.75;;;;;;;;;;5014428;28;20427;-63
2024/02/26 07:48:41;;;;;;;8.52;3.22;;;;;;;;;;5014849;28;20083;-63
2024/02/26 07:51:07;;;;;;;5.65;3.70;;;;;;;;;;5014181;28;20130;-63
2024/02/26 07:53:33;;;;;;;6.18;3.53;;;;;;;;;;5008592;28;20400;-63
2024/02/26 07:55:59;;;;;;;3.22;2.83;;;;;;;;;;5014322;28;20049;-63
2024/02/26 07:58:25;;;;;;;5.93;3.50;;;;;;;;;;5014112;28;20021;-62
2024/02/26 08:00:51;;;;;;;5.38;3.20;;;;;;;;;;5013483;28;20054;-60
2024/02/26 08:03:17;;;;;;;4.50;3.40;;;;;;;;;;5014371;28;20026;-60
2024/02/26 08:05:43;;;;;;;5.20;3.50;;;;;;;;;;5013702;28;20479;-60
2024/02/26 08:08:09;;;;;;;6.72;4.03;;;;;;;;;;5013581;28;20030;-60
2024/02/26 08:10:35;;;;;;;4.75;3.72;;;;;;;;;;5008402;28;20109;-61
2024/02/26 08:13:07;;;;;;;6.68;3.80;;;;;;;;;;5013761;28;20044;-60
2024/02/26 08:15:40;;;;;;;6.68;3.80;;;;;;;;;;5013916;28;20471;-60
2024/02/26 08:18:06;;;;;;;8.20;3.92;;;;;;;;;;5013840;28;20125;-61
2024/02/26 08:20:32;;;;;;;5.82;3.92;;;;;;;;;;5014222;28;20033;-61
2024/02/26 08:22:58;;;;;;;6.70;4.22;;;;;;;;;;5013344;28;20099;-61
2024/02/26 08:25:25;;;;;;;6.38;4.13;;;;;;;;;;5014207;28;20384;-61
2024/02/26 08:27:51;;;;;;;5.82;3.90;;;;;;;;;;5012505;28;20056;-60
2024/02/26 08:30:17;;;;;;;4.05;3.35;;;;;;;;;;5014008;28;20034;-61
2024/02/26 08:32:44;;;;;;;6.00;4.43;;;;;;;;;;5013795;28;20026;-61
2024/02/26 08:35:10;;;;;;;9.05;4.68;;;;;;;;;;5013469;28;20056;-61
2024/02/26 08:37:36;;;;;;;6.95;4.68;;;;;;;;;;5013708;28;20109;-61
2024/02/26 08:40:03;;;;;;;10.57;5.18;;;;;;;;;;5013290;28;20148;-61
2024/02/26 08:42:29;;;;;;;9.77;5.13;;;;;;;;;;5013474;28;20499;-59
2024/02/26 08:44:55;;;;;;;9.77;4.20;;;;;;;;;;5012002;28;20038;-59
2024/02/26 08:47:21;;;;;;;7.93;4.43;;;;;;;;;;5013293;28;20464;-60
2024/02/26 08:49:47;;;;;;;7.68;4.93;;;;;;;;;;5012547;28;20030;-60
2024/02/26 08:52:14;;;;;;;7.43;5.05;;;;;;;;;;5012792;28;20022;-60
2024/02/26 08:54:40;;;;;;;7.47;4.90;;;;;;;;;;5012972;28;20033;-59
2024/02/26 08:57:06;;;;;;;7.72;4.90;;;;;;;;;;5012973;28;20032;-60
2024/02/26 08:59:50;;;;;;;9.75;4.95;;;;;;;;;;5012995;28;20022;-60
2024/02/26 09:02:16;;;;;;;9.57;5.55;;;;;;;;;;4999300;28;20030;-60
2024/02/26 09:04:42;;;;;;;12.20;5.57;;;;;;;;;;5013061;28;20049;-60
2024/02/26 09:07:08;;;;;;;6.68;4.60;;;;;;;;;;5013176;28;20052;-60
2024/02/26 09:09:34;;;;;;;7.13;4.43;;;;;;;;;;5012830;28;20026;-60
2024/02/26 09:12:00;;;;;;;6.43;3.95;;;;;;;;;;5012785;28;20029;-60
2024/02/26 09:14:26;;;;;;;6.68;4.40;;;;;;;;;;5011229;28;20057;-60
2024/02/26 09:16:52;;;;;;;7.25;4.32;;;;;;;;;;5012919;28;20171;-60
2024/02/26 09:19:18;;;;;;;7.75;5.00;;;;;;;;;;5012664;28;20029;-60
2024/02/26 09:21:45;;;;;;;6.57;4.22;;;;;;;;;;5011607;28;20117;-60
2024/02/26 09:24:14;;;;;;;5.63;3.97;;;;;;;;;;5013121;28;20044;-60
2024/02/26 09:26:40;;;;;;;6.78;4.70;;;;;;;;;;5013069;28;20083;-60
2024/02/26 09:29:08;;;;;;;7.32;4.50;;;;;;;;;;5012724;28;20025;-61
2024/02/26 09:31:34;;;;;;;5.80;4.00;;;;;;;;;;5012860;28;20034;-61
2024/02/26 09:34:00;;;;;;;5.65;4.28;;;;;;;;;;5012568;28;20025;-60
2024/02/26 09:36:26;;;;;;;6.05;4.63;;;;;;;;;;5011257;28;20033;-60
2024/02/26 09:38:52;;;;;;;5.35;3.95;;;;;;;;;;5011185;28;20028;-60
2024/02/26 09:41:18;;;;;;;4.57;3.67;;;;;;;;;;5011220;28;20452;-60
2024/02/26 09:43:49;;;;;;;5.82;4.43;;;;;;;;;;5011251;28;20014;-60
2024/02/26 09:46:17;;;;;;;4.78;3.75;;;;;;;;;;5012925;28;20120;-60
2024/02/26 09:48:44;;;;;;;4.65;4.10;;;;;;;;;;5010741;28;20365;-60
2024/02/26 09:51:14;;;;;;;5.32;4.13;;;;;;;;;;5004268;28;20555;-60
2024/02/26 09:53:42;;;;;;;5.72;4.28;;;;;;;;;;5012692;28;20026;-60
2024/02/26 09:56:09;;;;;;;5.22;3.78;;;;;;;;;;5012267;28;20551;-60
2024/02/26 09:59:09;;;;;;;5.82;4.45;;;;;;;;;;5011114;28;20087;-60
2024/02/26 10:01:35;;;;;;;8.32;4.57;;;;;;;;;;5013034;28;20052;-60
2024/02/26 10:04:02;;;;;;;6.20;4.05;;;;;;;;;;5016474;28;20038;-60
2024/02/26 10:06:29;;;;;;;5.43;4.47;;;;;;;;;;5016412;28;20048;-60
2024/02/26 10:08:58;;;;;;;8.57;4.15;;;;;;;;;;5016135;28;20048;-60
2024/02/26 10:11:24;;;;;;;6.55;3.72;;;;;;;;;;5016137;28;20049;-60
2024/02/26 10:13:51;;;;;;;6.55;3.67;;;;;;;;;;5007012;28;20022;-60
2024/02/26 10:16:17;;;;;;;6.93;3.55;;;;;;;;;;5012819;28;20072;-60
2024/02/26 10:18:47;;;;;;;6.15;4.45;;;;;;;;;;5016051;28;20396;-60
2024/02/26 10:21:13;;;;;;;3.70;3.20;;;;;;;;;;5011769;28;20029;-60
2024/02/26 10:23:39;;;;;;;5.25;3.13;;;;;;;;;;5016298;28;20049;-61
2024/02/26 10:26:05;;;;;;;5.82;3.20;;;;;;;;;;5015887;28;20108;-60
2024/02/26 10:28:31;;;;;;;2.95;2.63;;;;;;;;;;5012123;28;20026;-60
2024/02/26 10:30:58;;;;;;;3.45;3.15;;;;;;;;;;5009363;28;20034;-60
2024/02/26 10:33:25;;;;;;;4.03;3.13;;;;;;;;;;5015983;28;20109;-60
2024/02/26 10:35:51;;;;;;;5.57;3.70;;;;;;;;;;5015914;28;20030;-60
2024/02/26 10:38:26;;;;;;;4.75;3.08;;;;;;;;;;5011660;28;20032;-60
2024/02/26 10:40:53;;;;;;;4.53;3.05;;;;;;;;;;5015734;28;20494;-60
2024/02/26 10:43:19;;;;;;;6.07;3.58;;;;;;;;;;5014732;28;20080;-60
2024/02/26 10:45:45;;;;;;;5.53;3.67;;;;;;;;;;5015750;28;20030;-60
2024/02/26 10:48:12;;;;;;;3.97;3.60;;;;;;;;;;5015837;28;20123;-60
2024/02/26 10:50:39;;;;;;;6.35;3.70;;;;;;;;;;5015777;28;20072;-60
2024/02/26 10:53:06;;;;;;;4.82;3.53;;;;;;;;;;5015553;28;20041;-60
2024/02/26 10:55:35;;;;;;;5.47;3.55;;;;;;;;;;5010566;28;20092;-60
2024/02/26 10:58:02;;;;;;;4.80;2.97;;;;;;;;;;4998116;28;20156;-60
2024/02/26 11:00:29;;;;;;;6.13;3.40;;;;;;;;;;5004913;28;20057;-60
2024/02/26 11:02:58;;;;;;;4.93;4.15;;;;;;;;;;5015580;28;20053;-60
2024/02/26 11:05:24;;;;;;;7.38;4.43;;;;;;;;;;5015373;28;20017;-60
2024/02/26 11:07:51;;;;;;;6.03;4.93;;;;;;;;;;5015030;28;20037;-60
2024/02/26 11:10:17;;;;;;;5.45;4.03;;;;;;;;;;5015109;28;20034;-60
2024/02/26 11:12:43;;;;;;;5.22;3.90;;;;;;;;;;5014634;28;20030;-59
2024/02/26 11:15:09;;;;;;;4.80;4.20;;;;;;;;;;5014434;28;20044;-60
2024/02/26 11:17:38;;;;;;;5.53;3.97;;;;;;;;;;5010509;28;20026;-59
2024/02/26 11:20:05;;;;;;;5.78;5.18;;;;;;;;;;5002267;28;20137;-60
2024/02/26 11:22:32;;;;;;;7.43;5.22;;;;;;;;;;5010409;28;20028;-60
2024/02/26 11:25:00;;;;;;;7.00;4.32;;;;;;;;;;5012681;28;20084;-60
2024/02/26 11:27:32;;;;;;;8.18;4.93;;;;;;;;;;5001031;28;20018;-60
2024/02/26 11:29:59;;;;;;;8.88;4.95;;;;;;;;;;5014355;28;20109;-60
2024/02/26 11:32:26;;;;;;;8.73;5.13;;;;;;;;;;5014084;28;20018;-60
2024/02/26 11:34:54;;;;;;;6.40;5.40;;;;;;;;;;5014440;28;20375;-60
2024/02/26 11:37:20;;;;;;;4.97;4.47;;;;;;;;;;5012935;28;20116;-60
2024/02/26 11:39:46;;;;;;;5.88;5.20;;;;;;;;;;5014565;28;20091;-60
2024/02/26 11:42:16;;;;;;;6.72;5.40;;;;;;;;;;5008856;28;20093;-60
2024/02/26 11:44:42;;;;;;;8.15;5.75;;;;;;;;;;5006786;28;20423;-60
2024/02/26 11:47:11;;;;;;;7.28;5.35;;;;;;;;;;5014362;28;20036;-60
2024/02/26 11:49:37;;;;;;;5.32;4.32;;;;;;;;;;5014725;28;20026;-60
2024/02/26 11:52:06;;;;;;;8.82;5.25;;;;;;;;;;5014409;28;20095;-60
2024/02/26 11:54:49;;;;;;;8.35;4.50;;;;;;;;;;5014553;28;20112;-60
2024/02/26 11:57:38;;;;;;;8.05;4.65;;;;;;;;;;5014190;28;20018;-60
2024/02/26 12:00:07;;;;;;;5.53;4.47;;;;;;;;;;5007566;28;20042;-60
2024/02/26 12:02:46;;;;;;;6.70;5.15;;;;;;;;;;5013910;28;20071;-60
2024/02/26 12:05:20;;;;;;;6.07;5.05;;;;;;;;;;5012469;28;20030;-60
2024/02/26 12:07:47;;;;;;;5.07;4.35;;;;;;;;;;5013715;28;20472;-60
2024/02/26 12:10:15;;;;;;;6.45;4.93;;;;;;;;;;5013509;28;20180;-61
2024/02/26 12:12:42;;;;;;;5.03;4.53;;;;;;;;;;5013436;28;20018;-61
2024/02/26 12:15:09;;;;;;;6.70;5.90;;;;;;;;;;5013880;28;20116;-60
2024/02/26 12:17:35;;;;;;;7.40;5.55;;;;;;;;;;5013581;28;20113;-59
2024/02/26 12:20:10;;;;;;;6.82;5.50;;;;;;;;;;5013705;28;20030;-62
2024/02/26 12:22:39;;;;;;;6.43;5.70;;;;;;;;;;5013495;28;20037;-59
2024/02/26 12:25:05;;;;;;;7.43;6.60;;;;;;;;;;5013480;28;20108;-62
2024/02/26 12:27:32;;;;;;;10.68;6.57;;;;;;;;;;5012416;28;20132;-62
2024/02/26 12:29:58;;;;;;;8.30;6.68;;;;;;;;;;5012053;28;20025;-60
2024/02/26 12:32:24;;;;;;;11.82;6.80;;;;;;;;;;5013007;28;20032;-59
2024/02/26 12:34:50;;;;;;;8.05;6.40;;;;;;;;;;5013376;28;20456;-59
2024/02/26 12:37:17;;;;;;;9.25;6.70;;;;;;;;;;5012965;28;20440;-60
2024/02/26 12:39:43;;;;;;;7.00;6.13;;;;;;;;;;4998698;28;20117;-60
2024/02/26 12:42:09;;;;;;;8.50;5.85;;;;;;;;;;5005444;28;20092;-60
2024/02/26 12:44:36;;;;;;;7.68;5.25;;;;;;;;;;5013122;28;20053;-60
2024/02/26 12:47:05;;;;;;;6.78;4.82;;;;;;;;;;5004538;28;20070;-60
2024/02/26 12:49:31;;;;;;;8.35;4.70;;;;;;;;;;5008430;28;20042;-60
2024/02/26 12:52:01;;;;;;;8.18;4.72;;;;;;;;;;5004782;28;20469;-60
2024/02/26 12:54:38;;;;;;;4.30;3.83;;;;;;;;;;5007767;28;20386;-60
2024/02/26 12:57:06;;;;;;;6.00;4.53;;;;;;;;;;5013030;28;20076;-61
2024/02/26 12:59:33;;;;;;;4.82;3.70;;;;;;;;;;5012874;28;20030;-60
2024/02/26 13:01:59;;;;;;;9.52;4.47;;;;;;;;;;5013212;28;20088;-60
2024/02/26 13:04:25;;;;;;;6.45;4.15;;;;;;;;;;5012999;28;20065;-61
2024/02/26 13:06:51;;;;;;;5.47;4.63;;;;;;;;;;5012801;28;20025;-60
2024/02/26 13:09:18;;;;;;;5.15;3.78;;;;;;;;;;5012680;28;20018;-61
2024/02/26 13:11:45;;;;;;;12.57;4.55;;;;;;;;;;5012597;28;20046;-61
2024/02/26 13:14:20;;;;;;;4.53;3.47;;;;;;;;;;5012524;28;20545;-61
2024/02/26 13:16:55;;;;;;;4.13;3.50;;;;;;;;;;5012705;28;20042;-61
2024/02/26 13:19:21;;;;;;;3.83;3.17;;;;;;;;;;5012748;28;20022;-61
2024/02/26 13:21:47;;;;;;;5.65;3.30;;;;;;;;;;5011291;28;20032;-60
2024/02/26 13:24:13;;;;;;;4.35;3.92;;;;;;;;;;5012762;28;20026;-60
2024/02/26 13:26:40;;;;;;;6.32;4.28;;;;;;;;;;5012398;28;20383;-60
2024/02/26 13:29:06;;;;;;;3.25;2.75;;;;;;;;;;5012336;28;20034;-60
2024/02/26 13:31:32;;;;;;;3.10;2.53;;;;;;;;;;5011024;28;20053;-60
2024/02/26 13:33:58;;;;;;;2.53;1.98;;;;;;;;;;5012572;28;20034;-61
2024/02/26 13:36:25;;;;;;;3.75;2.05;;;;;;;;;;5010264;28;20124;-61
2024/02/26 13:38:55;;;;;;;5.18;1.98;;;;;;;;;;5010749;28;20449;-60
2024/02/26 13:41:21;;;;;;;1.98;1.65;;;;;;;;;;5010934;28;20053;-60
2024/02/26 13:43:48;;;;;;;2.75;1.33;;;;;;;;;;5013021;28;20384;-60
2024/02/26 13:46:15;;;;;;;3.97;1.83;;;;;;;;;;5012271;28;20014;-61
2024/02/26 13:48:41;;;;;;;5.60;1.95;;;;;;;;;;5012400;28;20364;-60
2024/02/26 13:51:07;;;;;;;3.40;1.95;;;;;;;;;;5010905;28;20056;-60
2024/02/26 13:53:33;;;;;;;2.63;1.77;;;;;;;;;;5012264;28;20066;-60
2024/02/26 13:56:01;;;;;;;6.95;2.42;;;;;;;;;;5010707;28;20044;-60
2024/02/26 13:58:27;;;;;;;4.00;1.50;;;;;;;;;;5012013;28;20018;-60
2024/02/26 14:00:56;;;;;;;6.25;1.90;;;;;;;;;;5011964;28;20563;-61
2024/02/26 14:03:22;;;;;;;4.90;1.45;;;;;;;;;;5012009;28;20034;-60
2024/02/26 14:05:48;;;;;;;4.03;1.95;;;;;;;;;;5012177;28;20028;-61
2024/02/26 14:08:15;;;;;;;4.35;1.80;;;;;;;;;;5011862;28;20026;-60
2024/02/26 14:10:41;;;;;;;3.60;1.88;;;;;;;;;;5008435;28;20452;-61
2024/02/26 14:13:07;;;;;;;4.45;2.22;;;;;;;;;;5010665;28;20033;-60
2024/02/26 14:15:35;;;;;;;5.18;2.17;;;;;;;;;;5011754;28;21493;-61
2024/02/26 14:18:03;;;;;;;3.38;2.22;;;;;;;;;;5012062;28;20029;-61
2024/02/26 14:20:29;;;;;;;5.00;2.17;;;;;;;;;;5011965;28;20034;-60
2024/02/26 14:22:55;;;;;;;4.57;2.42;;;;;;;;;;5011949;28;20028;-60
2024/02/26 14:25:33;;;;;;;4.43;2.35;;;;;;;;;;4992546;28;20041;-60
2024/02/26 14:27:59;;;;;;;6.25;2.33;;;;;;;;;;5002745;28;20539;-60
2024/02/26 14:30:26;;;;;;;6.88;2.25;;;;;;;;;;5006851;28;20376;-60
2024/02/26 14:32:52;;;;;;;11.40;3.67;;;;;;;;;;5011927;28;20484;-60
2024/02/26 14:35:18;;;;;;;4.00;2.25;;;;;;;;;;5010623;28;20040;-60
2024/02/26 14:37:47;;;;;;;2.53;1.83;;;;;;;;;;5011916;28;20014;-61
2024/02/26 14:40:14;;;;;;;4.38;2.08;;;;;;;;;;5011476;28;20033;-61